createdAt,value
2022-08-03T00:02:25.116Z,99.80
2022-08-03T00:07:30.058Z,99.38
2022-08-03T00:12:33.706Z,100.00
2022-08-03T00:17:52.916Z,99.37
2022-08-03T00:22:58.887Z,100.00
2022-08-03T00:28:02.792Z,100.00
2022-08-03T00:33:06.480Z,100.00
2022-08-03T00:38:13.287Z,100.00
2022-08-03T00:43:16.992Z,100.00
2022-08-03T00:48:33.295Z,100.00
2022-08-03T00:53:39.138Z,100.00
2022-08-03T00:58:44.723Z,100.00
2022-08-03T01:03:48.338Z,100.00
2022-08-03T01:09:03.669Z,100.00
2022-08-03T01:14:18.851Z,100.00
2022-08-03T01:19:40.959Z,100.00
2022-08-03T01:24:53.931Z,100.00
2022-08-03T01:30:05.839Z,100.00
2022-08-03T01:35:12.526Z,100.00
2022-08-03T01:40:18.706Z,100.00
2022-08-03T01:45:25.091Z,100.00
2022-08-03T01:50:30.736Z,100.00
2022-08-03T01:55:38.121Z,100.00
2022-08-03T02:00:44.752Z,100.00
2022-08-03T02:05:54.086Z,100.00
2022-08-03T02:11:12.138Z,100.00
2022-08-03T02:16:19.821Z,100.00
2022-08-03T02:21:57.006Z,100.00
2022-08-03T02:26:50.714Z,100.00
2022-08-03T02:31:59.119Z,100.00
2022-08-03T02:37:07.124Z,100.00
2022-08-03T02:42:13.290Z,100.00
2022-08-03T02:47:21.960Z,100.00
2022-08-03T02:52:29.220Z,100.00
2022-08-03T02:57:36.069Z,100.00
2022-08-03T03:02:43.903Z,100.00
2022-08-03T03:07:51.841Z,100.00
2022-08-03T03:12:58.587Z,100.00
2022-08-03T03:18:04.260Z,100.00
2022-08-03T03:23:10.343Z,100.00
2022-08-03T03:28:14.631Z,100.00
2022-08-03T03:33:20.025Z,100.00
2022-08-03T03:38:24.090Z,100.00
2022-08-03T03:43:29.471Z,100.00
2022-08-03T03:48:35.034Z,100.00
2022-08-03T03:53:38.705Z,100.00
2022-08-03T03:58:42.434Z,100.00
2022-08-03T04:03:47.576Z,100.00
2022-08-03T04:09:08.417Z,100.00
2022-08-03T04:14:15.831Z,100.00
2022-08-03T04:19:27.158Z,100.00
2022-08-03T04:24:35.500Z,100.00
2022-08-03T04:29:46.471Z,100.00
2022-08-03T04:34:56.330Z,100.00
2022-08-03T04:40:04.130Z,100.00
2022-08-03T04:45:12.784Z,100.00
2022-08-03T04:50:21.566Z,100.00
2022-08-03T04:55:40.657Z,100.00
2022-08-03T05:00:45.721Z,100.00
2022-08-03T05:05:50.921Z,100.00
2022-08-03T05:10:54.750Z,100.00
2022-08-03T05:15:58.374Z,100.00
2022-08-03T05:21:03.589Z,100.00
2022-08-03T05:26:07.533Z,100.00
2022-08-03T05:31:12.192Z,100.00
2022-08-03T05:36:17.729Z,99.66
2022-08-03T05:41:36.673Z,100.00
2022-08-03T05:46:44.152Z,91.11
2022-08-03T05:51:49.160Z,89.50
2022-08-03T05:57:04.207Z,80.49
2022-08-03T06:02:08.218Z,83.47
2022-08-03T06:07:13.229Z,84.61
2022-08-03T06:12:17.072Z,83.93
2022-08-03T06:17:20.640Z,77.59
2022-08-03T06:22:25.658Z,66.27
2022-08-03T06:27:37.284Z,60.34
2022-08-03T06:32:42.325Z,57.75
2022-08-03T06:37:57.240Z,53.74
2022-08-03T06:43:01.782Z,50.14
2022-08-03T06:48:08.790Z,48.33
2022-08-03T06:53:19.808Z,46.60
2022-08-03T06:58:25.420Z,45.06
2022-08-03T07:03:29.457Z,43.00
2022-08-03T07:08:34.830Z,41.77
2022-08-03T07:13:38.509Z,40.35
2022-08-03T07:18:42.223Z,39.54
2022-08-03T07:23:47.279Z,39.95
2022-08-03T07:28:50.980Z,37.08
2022-08-03T07:33:54.908Z,35.33
2022-08-03T07:39:00.367Z,34.78
2022-08-03T07:44:19.733Z,34.73
2022-08-03T07:49:23.411Z,34.07
2022-08-03T07:54:29.140Z,35.50
2022-08-03T07:59:56.529Z,34.68
2022-08-03T08:05:05.347Z,35.51
2022-08-03T08:10:12.490Z,34.36
2022-08-03T08:15:17.003Z,34.11
2022-08-03T08:20:27.786Z,34.70
2022-08-03T08:25:35.767Z,33.17
2022-08-03T08:30:39.520Z,32.87
2022-08-03T08:35:43.194Z,33.01
2022-08-03T08:40:49.145Z,33.11
2022-08-03T08:45:53.617Z,32.39
2022-08-03T08:50:58.553Z,31.96
2022-08-03T08:56:04.604Z,31.82
2022-08-03T09:01:08.510Z,31.32
2022-08-03T09:06:12.305Z,30.79
2022-08-03T09:11:17.428Z,30.74
2022-08-03T09:16:22.615Z,29.24
2022-08-03T09:21:32.234Z,29.70
2022-08-03T09:26:39.006Z,29.87
2022-08-03T09:31:44.848Z,29.68
2022-08-03T09:36:50.536Z,28.69
2022-08-03T09:42:08.664Z,27.97
2022-08-03T09:47:13.956Z,28.62
2022-08-03T09:52:37.582Z,27.71
2022-08-03T09:57:46.493Z,28.08
2022-08-03T10:02:50.799Z,27.94
2022-08-03T10:07:54.423Z,28.21
2022-08-03T10:13:00.181Z,27.61
2022-08-03T10:18:04.052Z,26.54
2022-08-03T10:23:09.628Z,27.24
2022-08-03T10:28:17.791Z,27.08
2022-08-03T10:33:50.183Z,27.87
2022-08-03T10:38:53.147Z,27.52
2022-08-03T10:44:04.030Z,27.28
2022-08-03T10:49:08.620Z,27.09
2022-08-03T10:55:09.902Z,27.00
2022-08-03T11:00:17.027Z,25.95
2022-08-03T11:05:28.449Z,25.63
2022-08-03T11:10:33.016Z,25.97
2022-08-03T11:15:38.769Z,25.50
2022-08-03T11:20:47.078Z,25.38
2022-08-03T11:26:19.451Z,26.28
2022-08-03T11:31:50.175Z,26.28
2022-08-03T11:37:30.174Z,27.17
2022-08-03T11:42:41.695Z,26.57
2022-08-03T11:47:50.764Z,25.39
2022-08-03T11:52:55.722Z,25.70
2022-08-03T11:59:12.828Z,25.88
2022-08-03T12:03:25.361Z,26.37
2022-08-03T12:08:34.181Z,26.02
2022-08-03T12:14:28.947Z,25.66
2022-08-03T12:19:08.272Z,25.62
2022-08-03T12:24:12.503Z,25.86
2022-08-03T12:29:18.590Z,25.55
2022-08-03T12:34:23.599Z,26.51
2022-08-03T12:39:30.942Z,26.29
2022-08-03T12:44:37.131Z,25.42
2022-08-03T12:49:50.121Z,26.01
2022-08-03T12:54:57.920Z,25.34
2022-08-03T13:00:21.704Z,25.06
2022-08-03T13:05:44.639Z,25.60
2022-08-03T13:10:49.579Z,25.91
2022-08-03T13:15:53.294Z,26.02
2022-08-03T13:20:58.616Z,26.21
2022-08-03T13:26:02.310Z,26.65
2022-08-03T13:31:06.244Z,26.51
2022-08-03T13:36:12.385Z,25.51
2022-08-03T13:41:16.370Z,25.33
2022-08-03T13:46:21.399Z,25.83
2022-08-03T13:51:27.008Z,25.24
2022-08-03T13:56:32.026Z,25.16
2022-08-03T14:01:54.324Z,25.49
2022-08-03T14:07:00.705Z,25.41
2022-08-03T14:12:08.595Z,25.43
2022-08-03T14:17:12.414Z,25.01
2022-08-03T14:22:17.647Z,24.75
2022-08-03T14:27:22.050Z,24.29
2022-08-03T14:32:25.984Z,25.32
2022-08-03T14:37:31.937Z,24.13
2022-08-03T14:42:36.099Z,25.18
2022-08-03T14:49:02.793Z,27.11
2022-08-03T14:53:05.439Z,25.15
2022-08-03T14:58:18.574Z,25.24
2022-08-03T15:03:26.324Z,25.24
2022-08-03T15:08:31.909Z,26.17
2022-08-03T15:13:37.611Z,24.49
2022-08-03T15:18:41.931Z,24.82
2022-08-03T15:23:47.487Z,24.40
2022-08-03T15:28:51.955Z,25.00
2022-08-03T15:33:56.665Z,24.94
2022-08-03T15:39:01.870Z,25.52
2022-08-03T15:44:09.198Z,25.38
2022-08-03T15:49:13.370Z,25.87
2022-08-03T15:54:18.729Z,25.79
2022-08-03T15:59:22.773Z,25.27
2022-08-03T16:04:26.870Z,26.00
2022-08-03T16:09:42.077Z,25.55
2022-08-03T16:14:54.287Z,25.77
2022-08-03T16:19:59.060Z,25.80
2022-08-03T16:25:06.185Z,29.12
2022-08-03T16:30:20.890Z,27.14
2022-08-03T16:35:24.886Z,26.25
2022-08-03T16:40:31.606Z,27.72
2022-08-03T16:45:35.888Z,29.68
2022-08-03T16:50:40.921Z,31.28
2022-08-03T16:55:52.054Z,33.59
2022-08-03T17:00:57.914Z,30.62
2022-08-03T17:06:04.777Z,32.24
2022-08-03T17:11:15.063Z,32.85
2022-08-03T17:16:20.345Z,36.04
2022-08-03T17:21:29.346Z,34.07
2022-08-03T17:26:38.986Z,34.67
2022-08-03T17:31:48.868Z,35.21
2022-08-03T17:37:26.971Z,35.41
2022-08-03T17:42:38.939Z,35.47
2022-08-03T17:47:43.804Z,36.02
2022-08-03T17:52:50.549Z,38.04
2022-08-03T17:58:06.567Z,39.06
2022-08-03T18:03:23.378Z,40.07
2022-08-03T18:08:34.241Z,41.25
2022-08-03T18:13:53.416Z,41.36
2022-08-03T18:19:09.611Z,42.21
2022-08-03T18:24:20.789Z,42.51
2022-08-03T18:29:31.721Z,43.84
2022-08-03T18:34:41.065Z,44.68
2022-08-03T18:39:58.675Z,46.49
2022-08-03T18:45:15.061Z,45.71
2022-08-03T18:50:36.749Z,49.03
2022-08-03T18:56:01.507Z,50.93
2022-08-03T19:01:59.641Z,50.68
2022-08-03T19:06:49.339Z,50.95
2022-08-03T19:12:12.468Z,53.33
2022-08-03T19:17:23.886Z,57.81
2022-08-03T19:22:34.683Z,55.68
2022-08-03T19:27:40.494Z,56.43
2022-08-03T19:32:51.799Z,57.38
2022-08-03T19:37:56.169Z,59.08
2022-08-03T19:43:08.132Z,56.63
2022-08-03T19:48:18.851Z,57.37
2022-08-03T19:53:35.362Z,56.28
2022-08-03T19:58:42.146Z,58.87
2022-08-03T20:03:49.242Z,60.56
2022-08-03T20:08:55.062Z,62.13
2022-08-03T20:14:00.413Z,62.47
2022-08-03T20:19:13.977Z,63.77
2022-08-03T20:24:26.521Z,61.48
2022-08-03T20:30:05.418Z,62.60
2022-08-03T20:35:00.945Z,60.93
2022-08-03T20:40:07.099Z,61.02
2022-08-03T20:50:37.346Z,66.49
2022-08-03T20:55:47.752Z,67.65
2022-08-03T21:01:06.403Z,69.79
2022-08-03T21:06:14.976Z,70.57
2022-08-03T21:11:20.126Z,72.76
2022-08-03T21:13:07.321Z,64.24
2022-08-03T21:16:28.991Z,71.14
2022-08-03T21:21:34.225Z,70.87
2022-08-03T21:26:40.598Z,72.48
2022-08-03T21:31:46.808Z,72.26
2022-08-03T21:36:54.899Z,72.37
2022-08-03T21:41:58.553Z,73.87
2022-08-03T21:47:03.680Z,72.05
2022-08-03T21:52:08.812Z,74.59
2022-08-03T21:57:20.227Z,79.02
2022-08-03T22:02:31.423Z,77.26
2022-08-03T22:07:38.670Z,77.79
2022-08-03T22:12:42.735Z,79.51
2022-08-03T22:17:55.463Z,77.57
2022-08-03T22:23:05.354Z,77.54
2022-08-03T22:28:10.938Z,77.34
2022-08-03T22:33:16.519Z,78.44
2022-08-03T22:38:21.636Z,80.94
2022-08-03T22:43:28.366Z,83.74
2022-08-03T22:48:34.182Z,83.51
2022-08-03T22:53:41.394Z,81.95
2022-08-03T22:58:44.992Z,80.90
2022-08-03T23:03:59.804Z,80.73
2022-08-03T23:09:09.901Z,81.82
2022-08-03T23:14:16.260Z,83.25
2022-08-03T23:19:25.722Z,82.16
2022-08-03T23:24:31.723Z,83.96
2022-08-03T23:29:36.654Z,83.08
2022-08-03T23:35:01.139Z,82.63
2022-08-03T23:40:07.887Z,82.92
2022-08-03T23:45:13.318Z,88.31
2022-08-03T23:50:17.512Z,88.91
2022-08-03T23:55:39.610Z,86.97
